METAR Formatted Surface Weather Observation
Issued by NWS

Current Version | Previous Version | Text Only | Print | Product List | Glossary On
Versions: 1 2 3 4 5 6 7 8 9 10 11 12 13 14 15 16 17 18 19 20 21 22 23 24 25
605
SAUS46 KSTO 231058 COR
MTRBLU
METAR KBLU 231052Z AUTO 04003KT 10SM CLR 21/06 A3014 RMK AO2 SLP090
T02110056 TSNO



USA.gov is the U.S. government's official web portal to all federal, state and local government web resources and services.